createdAt,value
2018-07-22T00:00:27.804Z,24.30
2018-07-22T00:02:56.696Z,24.30
2018-07-22T00:05:25.624Z,24.00
2018-07-22T00:07:54.520Z,23.80
2018-07-22T00:10:29.291Z,23.80
2018-07-22T00:12:58.957Z,23.80
2018-07-22T00:15:27.961Z,23.80
2018-07-22T00:17:56.860Z,24.00
2018-07-22T00:20:25.844Z,23.90
2018-07-22T00:22:54.741Z,23.70
2018-07-22T00:25:23.683Z,23.70
2018-07-22T00:27:52.676Z,23.90
2018-07-22T00:30:21.597Z,23.60
2018-07-22T00:32:50.642Z,23.70
2018-07-22T00:35:19.688Z,23.70
2018-07-22T00:37:48.753Z,23.80
2018-07-22T00:40:17.761Z,23.30
2018-07-22T00:42:46.876Z,23.50
2018-07-22T00:45:15.961Z,23.60
2018-07-22T00:47:45.074Z,23.70
2018-07-22T00:50:14.140Z,22.90
2018-07-22T00:52:43.191Z,23.10
2018-07-22T00:55:12.110Z,22.70
2018-07-22T00:57:41.025Z,22.90
2018-07-22T01:00:10.010Z,22.60
2018-07-22T01:02:38.958Z,22.80
2018-07-22T01:05:07.986Z,23.20
2018-07-22T01:07:36.980Z,23.40
2018-07-22T01:10:05.995Z,23.40
2018-07-22T01:12:34.949Z,23.10
2018-07-22T01:15:03.900Z,22.90
2018-07-22T01:17:32.875Z,22.80
2018-07-22T01:20:01.761Z,23.00
2018-07-22T01:22:30.699Z,23.00
2018-07-22T01:24:59.578Z,23.40
2018-07-22T01:27:28.492Z,23.30
2018-07-22T01:29:57.409Z,23.40
2018-07-22T01:32:26.330Z,23.40
2018-07-22T01:34:55.320Z,23.20
2018-07-22T01:37:24.205Z,23.20
2018-07-22T01:39:53.132Z,22.80
2018-07-22T01:42:22.022Z,22.70
2018-07-22T01:44:50.990Z,22.60
2018-07-22T01:47:20.001Z,22.80
2018-07-22T01:49:49.070Z,23.00
2018-07-22T01:52:18.109Z,23.10
2018-07-22T01:54:47.164Z,23.10
2018-07-22T01:57:16.177Z,23.00
2018-07-22T01:59:45.217Z,23.00
2018-07-22T02:02:14.384Z,23.00
2018-07-22T02:04:43.438Z,23.00
2018-07-22T02:07:12.455Z,22.60
2018-07-22T02:09:41.381Z,22.80
2018-07-22T02:12:10.428Z,22.40
2018-07-22T02:14:39.304Z,22.70
2018-07-22T02:17:08.191Z,22.80
2018-07-22T02:19:38.013Z,22.80
2018-07-22T02:22:07.010Z,22.80
2018-07-22T02:24:35.873Z,22.80
2018-07-22T02:27:04.804Z,22.80
2018-07-22T02:29:33.709Z,22.60
2018-07-22T02:32:02.635Z,22.40
2018-07-22T02:34:31.544Z,22.60
2018-07-22T02:37:00.474Z,22.50
2018-07-22T02:39:29.361Z,22.60
2018-07-22T02:41:58.324Z,22.50
2018-07-22T02:44:27.196Z,22.50
2018-07-22T02:46:56.136Z,22.60
2018-07-22T02:49:24.978Z,22.30
2018-07-22T02:51:53.950Z,22.40
2018-07-22T02:54:22.925Z,22.40
2018-07-22T02:56:51.881Z,22.40
2018-07-22T02:59:21.127Z,22.30
2018-07-22T03:01:50.108Z,22.30
2018-07-22T03:04:19.133Z,22.30
2018-07-22T03:06:48.198Z,22.40
2018-07-22T03:09:17.289Z,22.00
2018-07-22T03:11:46.335Z,22.10
2018-07-22T03:14:15.520Z,22.20
2018-07-22T03:16:44.569Z,22.10
2018-07-22T03:19:14.088Z,22.10
2018-07-22T03:21:43.153Z,22.20
2018-07-22T03:24:12.129Z,22.10
2018-07-22T03:26:41.036Z,22.10
2018-07-22T03:29:09.964Z,22.10
2018-07-22T03:31:38.860Z,22.10
2018-07-22T03:34:07.873Z,21.90
2018-07-22T03:36:36.780Z,21.90
2018-07-22T03:39:08.093Z,22.00
2018-07-22T03:41:36.976Z,21.90
2018-07-22T03:44:05.964Z,21.90
2018-07-22T03:46:34.860Z,21.80
2018-07-22T03:49:03.840Z,21.90
2018-07-22T03:51:32.772Z,21.90
2018-07-22T03:54:01.731Z,21.90
2018-07-22T03:56:30.639Z,21.80
2018-07-22T03:58:59.561Z,21.80
2018-07-22T04:01:28.465Z,21.60
2018-07-22T04:03:57.352Z,21.70
2018-07-22T04:06:26.267Z,21.30
2018-07-22T04:08:55.192Z,21.40
2018-07-22T04:11:24.121Z,21.30
2018-07-22T04:13:53.201Z,21.30
2018-07-22T04:16:22.189Z,21.10
2018-07-22T04:18:53.335Z,20.80
2018-07-22T04:21:23.778Z,21.10
2018-07-22T04:23:52.788Z,21.50
2018-07-22T04:26:22.139Z,21.70
2018-07-22T04:28:51.515Z,21.70
2018-07-22T04:31:20.596Z,21.60
2018-07-22T04:33:49.558Z,21.70
2018-07-22T04:36:18.670Z,21.60
2018-07-22T04:38:47.647Z,21.40
2018-07-22T04:41:16.776Z,21.40
2018-07-22T04:43:45.792Z,21.20
2018-07-22T04:46:14.872Z,21.40
2018-07-22T04:48:43.935Z,21.30
2018-07-22T04:51:12.909Z,21.30
2018-07-22T04:53:41.884Z,22.30
2018-07-22T04:56:10.827Z,22.90
2018-07-22T04:58:39.761Z,23.20
2018-07-22T05:01:08.661Z,23.10
2018-07-22T05:03:37.605Z,22.80
2018-07-22T05:06:06.489Z,22.70
2018-07-22T05:08:35.468Z,23.20
2018-07-22T05:11:04.401Z,23.60
2018-07-22T05:13:33.328Z,23.30
2018-07-22T05:16:02.219Z,23.50
2018-07-22T05:18:31.156Z,23.70
2018-07-22T05:21:00.038Z,23.70
2018-07-22T05:23:28.964Z,24.00
2018-07-22T05:25:57.877Z,23.80
2018-07-22T05:28:26.895Z,23.90
2018-07-22T05:30:55.804Z,24.10
2018-07-22T05:33:24.740Z,24.90
2018-07-22T05:35:53.733Z,24.80
2018-07-22T05:38:22.668Z,25.20
2018-07-22T05:40:51.679Z,25.20
2018-07-22T05:43:20.608Z,25.00
2018-07-22T05:45:49.566Z,25.80
2018-07-22T05:48:18.560Z,25.90
2018-07-22T05:50:47.500Z,25.70
2018-07-22T05:53:16.501Z,25.60
2018-07-22T05:55:45.528Z,25.70
2018-07-22T05:58:14.509Z,26.40
2018-07-22T06:00:43.509Z,26.90
2018-07-22T06:03:12.480Z,27.10
2018-07-22T06:05:41.466Z,27.20
2018-07-22T06:08:10.400Z,27.10
2018-07-22T06:10:39.413Z,27.50
2018-07-22T06:13:08.344Z,27.90
2018-07-22T06:15:37.316Z,27.90
2018-07-22T06:18:06.274Z,27.90
2018-07-22T06:20:35.243Z,28.40
2018-07-22T06:23:04.197Z,28.30
2018-07-22T06:25:33.180Z,28.40
2018-07-22T06:28:02.104Z,29.00
2018-07-22T06:30:31.172Z,28.40
2018-07-22T06:33:00.152Z,28.10
2018-07-22T06:35:29.076Z,28.20
2018-07-22T06:37:58.099Z,27.90
2018-07-22T06:40:27.001Z,29.00
2018-07-22T06:42:55.992Z,27.90
2018-07-22T06:45:24.884Z,28.50
2018-07-22T06:47:53.848Z,29.40
2018-07-22T06:50:22.797Z,30.00
2018-07-22T06:52:51.752Z,29.60
2018-07-22T06:55:20.712Z,29.90
2018-07-22T06:57:49.648Z,29.90
2018-07-22T07:00:18.611Z,29.40
2018-07-22T07:02:47.577Z,29.70
2018-07-22T07:05:16.507Z,30.00
2018-07-22T07:07:45.493Z,29.30
2018-07-22T07:10:14.479Z,30.40
2018-07-22T07:12:43.560Z,28.50
2018-07-22T07:15:12.513Z,29.20
2018-07-22T07:17:41.577Z,29.80
2018-07-22T07:20:10.605Z,30.70
2018-07-22T07:22:39.563Z,31.90
2018-07-22T07:25:08.716Z,30.00
2018-07-22T07:27:37.631Z,28.90
2018-07-22T07:30:06.641Z,27.40
2018-07-22T07:32:35.610Z,29.00
2018-07-22T07:35:04.712Z,29.40
2018-07-22T07:37:33.600Z,30.70
2018-07-22T07:40:02.586Z,30.60
2018-07-22T07:42:31.565Z,30.50
2018-07-22T07:45:00.485Z,30.20
2018-07-22T07:47:29.379Z,31.50
2018-07-22T07:49:58.299Z,31.70
2018-07-22T07:52:27.192Z,31.50
2018-07-22T07:54:56.196Z,31.10
2018-07-22T07:57:25.132Z,29.10
2018-07-22T07:59:54.880Z,28.70
2018-07-22T08:02:25.300Z,29.30
2018-07-22T08:04:54.568Z,29.20
2018-07-22T08:07:23.492Z,29.30
2018-07-22T08:09:52.447Z,30.90
2018-07-22T08:12:21.414Z,30.00
2018-07-22T08:14:50.342Z,30.70
2018-07-22T08:17:19.272Z,31.60
2018-07-22T08:19:48.244Z,32.50
2018-07-22T08:22:17.197Z,29.40
2018-07-22T08:24:46.128Z,29.90
2018-07-22T08:27:15.122Z,30.00
2018-07-22T08:29:44.088Z,31.10
2018-07-22T08:32:13.031Z,31.40
2018-07-22T08:34:41.945Z,32.90
2018-07-22T08:37:10.943Z,32.10
2018-07-22T08:39:39.815Z,30.00
2018-07-22T08:42:08.889Z,31.90
2018-07-22T08:44:37.912Z,33.20
2018-07-22T08:47:06.887Z,32.10
2018-07-22T08:49:35.836Z,33.00
2018-07-22T08:52:04.858Z,33.30
2018-07-22T08:54:33.724Z,33.10
2018-07-22T08:57:02.658Z,29.80
2018-07-22T08:59:31.632Z,30.20
2018-07-22T09:02:00.561Z,32.20
2018-07-22T09:04:29.428Z,31.90
2018-07-22T09:06:58.372Z,32.60
2018-07-22T09:09:27.265Z,33.50
2018-07-22T09:11:56.136Z,32.00
2018-07-22T09:14:25.049Z,31.70
2018-07-22T09:16:53.919Z,30.60
2018-07-22T09:19:22.835Z,30.70
2018-07-22T09:21:51.697Z,31.00
2018-07-22T09:24:20.608Z,33.10
2018-07-22T09:26:49.490Z,32.90
2018-07-22T09:29:18.401Z,33.60
2018-07-22T09:31:47.344Z,32.00
2018-07-22T09:34:16.325Z,33.40
2018-07-22T09:36:45.312Z,33.30
2018-07-22T09:39:14.371Z,32.50
2018-07-22T09:41:43.336Z,31.40
2018-07-22T09:44:12.269Z,32.50
2018-07-22T09:46:41.123Z,32.00
2018-07-22T09:49:10.081Z,33.10
2018-07-22T09:51:38.919Z,33.60
2018-07-22T09:54:07.826Z,33.50
2018-07-22T09:56:36.844Z,32.70
2018-07-22T09:59:05.779Z,34.00
2018-07-22T10:01:34.681Z,32.10
2018-07-22T10:04:03.642Z,32.90
2018-07-22T10:06:32.575Z,34.20
2018-07-22T10:09:01.608Z,33.40
2018-07-22T10:11:30.603Z,32.80
2018-07-22T10:13:59.484Z,32.60
2018-07-22T10:16:28.412Z,32.20
2018-07-22T10:18:57.277Z,30.70
2018-07-22T10:21:26.192Z,31.00
2018-07-22T10:23:55.093Z,31.10
2018-07-22T10:26:23.977Z,30.80
2018-07-22T10:28:52.832Z,31.00
2018-07-22T10:31:21.784Z,31.90
2018-07-22T10:33:50.836Z,33.00
2018-07-22T10:36:19.825Z,33.70
2018-07-22T10:38:48.789Z,33.30
2018-07-22T10:41:17.934Z,33.30
2018-07-22T10:43:46.869Z,32.40
2018-07-22T10:46:15.856Z,32.40
2018-07-22T10:48:44.872Z,33.30
2018-07-22T10:51:13.870Z,33.60
2018-07-22T10:53:42.775Z,33.00
2018-07-22T10:56:11.709Z,32.70
2018-07-22T10:58:40.737Z,32.20
2018-07-22T11:01:09.644Z,32.80
2018-07-22T11:03:38.516Z,32.70
2018-07-22T11:06:07.400Z,32.50
2018-07-22T11:08:36.329Z,31.90
2018-07-22T11:11:05.352Z,31.30
2018-07-22T11:13:34.361Z,32.60
2018-07-22T11:16:03.348Z,32.50
2018-07-22T11:18:32.320Z,31.90
2018-07-22T11:21:01.265Z,32.00
2018-07-22T11:23:30.119Z,32.50
2018-07-22T11:25:58.965Z,32.70
2018-07-22T11:28:27.853Z,32.70
2018-07-22T11:30:56.752Z,31.50
2018-07-22T11:33:25.647Z,30.50
2018-07-22T11:35:54.522Z,29.90
2018-07-22T11:38:23.456Z,30.00
2018-07-22T11:40:52.328Z,30.60
2018-07-22T11:43:21.228Z,30.00
2018-07-22T11:45:50.100Z,30.50
2018-07-22T11:48:19.089Z,30.60
2018-07-22T11:50:47.999Z,30.40
2018-07-22T11:53:17.068Z,30.40
2018-07-22T11:55:46.023Z,30.40
2018-07-22T11:58:15.132Z,30.50
2018-07-22T12:00:47.862Z,30.80
2018-07-22T12:03:18.564Z,30.20
2018-07-22T12:05:47.592Z,30.30
2018-07-22T12:08:16.693Z,30.50
2018-07-22T12:10:45.727Z,30.90
2018-07-22T12:13:14.730Z,30.20
2018-07-22T12:15:43.823Z,30.60
2018-07-22T12:18:12.742Z,30.20
2018-07-22T12:20:41.664Z,30.30
2018-07-22T12:23:10.512Z,30.20
2018-07-22T12:25:39.392Z,29.90
2018-07-22T12:28:08.260Z,30.50
2018-07-22T12:30:37.196Z,30.60
2018-07-22T12:33:06.077Z,30.00
2018-07-22T12:35:34.994Z,29.70
2018-07-22T12:38:03.914Z,29.70
2018-07-22T12:40:32.910Z,29.90
2018-07-22T12:43:01.800Z,30.10
2018-07-22T12:45:30.717Z,30.00
2018-07-22T12:47:59.623Z,30.20
2018-07-22T12:50:28.564Z,30.10
2018-07-22T12:52:57.450Z,29.70
2018-07-22T12:55:26.309Z,30.10
2018-07-22T12:57:55.268Z,30.70
2018-07-22T13:00:24.144Z,31.00
2018-07-22T13:02:53.032Z,30.90
2018-07-22T13:05:21.908Z,30.60
2018-07-22T13:07:50.804Z,30.80
2018-07-22T13:10:19.848Z,31.10
2018-07-22T13:12:48.797Z,30.40
2018-07-22T13:15:17.859Z,29.70
2018-07-22T13:17:46.984Z,28.90
2018-07-22T13:20:15.989Z,29.20
2018-07-22T13:22:45.045Z,29.50
2018-07-22T13:25:14.024Z,29.80
2018-07-22T13:27:43.000Z,29.60
2018-07-22T13:30:11.913Z,29.30
2018-07-22T13:32:40.832Z,30.10
2018-07-22T13:35:09.708Z,30.10
2018-07-22T13:37:38.652Z,30.50
2018-07-22T13:40:07.524Z,30.80
2018-07-22T13:42:36.444Z,30.00
2018-07-22T13:45:05.770Z,30.20
2018-07-22T13:47:34.780Z,30.10
2018-07-22T13:50:03.929Z,30.40
2018-07-22T13:52:32.921Z,30.30
2018-07-22T13:55:01.827Z,30.90
2018-07-22T13:57:30.712Z,30.80
2018-07-22T13:59:59.626Z,30.20
2018-07-22T14:02:28.493Z,30.30
2018-07-22T14:04:57.392Z,30.40
2018-07-22T14:07:26.266Z,30.60
2018-07-22T14:09:55.233Z,30.80
2018-07-22T14:12:24.129Z,29.80
2018-07-22T14:14:53.057Z,29.40
2018-07-22T14:17:22.054Z,29.50
2018-07-22T14:19:50.980Z,29.40
2018-07-22T14:22:19.924Z,29.30
2018-07-22T14:24:49.002Z,28.60
2018-07-22T14:27:17.969Z,28.80
2018-07-22T14:29:47.009Z,29.20
2018-07-22T14:32:16.327Z,29.20
2018-07-22T14:34:45.444Z,29.10
2018-07-22T14:37:14.436Z,29.30
2018-07-22T14:39:44.052Z,29.00
2018-07-22T14:42:12.975Z,29.40
2018-07-22T14:44:41.897Z,29.30
2018-07-22T14:47:10.894Z,29.20
2018-07-22T14:49:39.752Z,28.70
2018-07-22T14:52:08.636Z,28.80
2018-07-22T14:54:37.590Z,29.50
2018-07-22T14:57:06.542Z,29.30
2018-07-22T14:59:35.412Z,29.70
2018-07-22T15:02:04.401Z,29.90
2018-07-22T15:04:33.318Z,29.90
2018-07-22T15:07:02.257Z,29.90
2018-07-22T15:09:31.144Z,30.30
2018-07-22T15:12:00.378Z,30.50
2018-07-22T15:14:29.263Z,30.60
2018-07-22T15:16:58.160Z,30.60
2018-07-22T15:19:27.022Z,30.20
2018-07-22T15:21:55.948Z,30.00
2018-07-22T15:24:24.812Z,30.30
2018-07-22T15:26:53.764Z,30.60
2018-07-22T15:29:22.671Z,30.00
2018-07-22T15:31:51.562Z,30.10
2018-07-22T15:34:20.422Z,30.00
2018-07-22T15:36:49.293Z,29.90
2018-07-22T15:39:18.189Z,29.60
2018-07-22T15:41:47.096Z,29.60
2018-07-22T15:44:15.980Z,29.20
2018-07-22T15:46:44.917Z,29.20
2018-07-22T15:49:13.796Z,29.50
2018-07-22T15:51:42.692Z,29.10
2018-07-22T15:54:11.594Z,28.80
2018-07-22T15:56:40.482Z,29.40
2018-07-22T15:59:09.433Z,29.70
2018-07-22T16:01:38.316Z,30.00
2018-07-22T16:04:07.408Z,29.40
2018-07-22T16:06:36.265Z,30.00
2018-07-22T16:09:07.938Z,29.90
2018-07-22T16:11:36.817Z,29.50
2018-07-22T16:14:05.885Z,29.60
2018-07-22T16:16:34.816Z,28.00
2018-07-22T16:19:03.812Z,28.50
2018-07-22T16:21:32.699Z,28.30
2018-07-22T16:24:01.664Z,28.30
2018-07-22T16:26:30.599Z,28.50
2018-07-22T16:28:59.497Z,28.10
2018-07-22T16:31:28.376Z,28.10
2018-07-22T16:33:57.337Z,28.70
2018-07-22T16:36:26.270Z,27.80
2018-07-22T16:38:55.189Z,28.00
2018-07-22T16:41:24.060Z,28.20
2018-07-22T16:43:52.964Z,28.60
2018-07-22T16:46:21.891Z,28.60
2018-07-22T16:48:50.795Z,29.30
2018-07-22T16:51:19.685Z,29.70
2018-07-22T16:53:48.683Z,28.80
2018-07-22T16:56:17.690Z,28.80
2018-07-22T16:58:46.582Z,29.30
2018-07-22T17:01:15.570Z,28.50
2018-07-22T17:03:44.479Z,27.30
2018-07-22T17:06:13.411Z,27.00
2018-07-22T17:08:42.339Z,27.20
2018-07-22T17:11:11.248Z,27.60
2018-07-22T17:13:40.175Z,28.00
2018-07-22T17:16:09.104Z,27.80
2018-07-22T17:18:37.980Z,27.80
2018-07-22T17:21:07.013Z,27.40
2018-07-22T17:23:35.872Z,27.60
2018-07-22T17:26:04.848Z,27.50
2018-07-22T17:28:33.768Z,27.50
2018-07-22T17:31:02.720Z,27.90
2018-07-22T17:33:31.608Z,28.10
2018-07-22T17:36:00.526Z,28.70
2018-07-22T17:38:29.404Z,27.90
2018-07-22T17:40:58.337Z,26.00
2018-07-22T17:43:27.251Z,25.10
2018-07-22T17:45:56.208Z,26.10
2018-07-22T17:48:25.092Z,27.50
2018-07-22T17:50:54.039Z,26.80
2018-07-22T17:53:22.928Z,27.30
2018-07-22T17:55:51.816Z,27.30
2018-07-22T17:58:20.757Z,27.70
2018-07-22T18:00:49.840Z,27.90
2018-07-22T18:03:28.356Z,27.80
2018-07-22T18:05:57.246Z,28.20
2018-07-22T18:08:26.187Z,28.60
2018-07-22T18:10:55.600Z,28.00
2018-07-22T18:13:24.544Z,28.20
2018-07-22T18:15:53.482Z,28.70
2018-07-22T18:18:22.560Z,28.60
2018-07-22T18:20:51.438Z,28.20
2018-07-22T18:23:20.384Z,28.10
2018-07-22T18:25:49.360Z,28.40
2018-07-22T18:28:18.321Z,28.60
2018-07-22T18:30:47.274Z,28.00
2018-07-22T18:33:16.261Z,27.80
2018-07-22T18:35:45.229Z,28.40
2018-07-22T18:38:14.220Z,28.70
2018-07-22T18:40:43.141Z,28.70
2018-07-22T18:43:12.108Z,28.50
2018-07-22T18:45:40.996Z,28.60
2018-07-22T18:48:09.874Z,28.00
2018-07-22T18:50:38.812Z,27.60
2018-07-22T18:53:07.690Z,27.50
2018-07-22T18:55:36.588Z,27.60
2018-07-22T18:58:05.540Z,27.40
2018-07-22T19:00:34.453Z,26.70
2018-07-22T19:03:03.340Z,27.20
2018-07-22T19:05:32.272Z,27.20
2018-07-22T19:08:01.152Z,27.50
2018-07-22T19:10:30.075Z,27.50
2018-07-22T19:12:58.949Z,26.90
2018-07-22T19:15:27.893Z,27.00
2018-07-22T19:17:56.768Z,26.80
2018-07-22T19:20:25.685Z,26.60
2018-07-22T19:22:54.584Z,26.80
2018-07-22T19:25:23.509Z,27.00
2018-07-22T19:27:52.427Z,26.90
2018-07-22T19:30:21.381Z,26.90
2018-07-22T19:32:50.304Z,26.90
2018-07-22T19:35:19.244Z,26.60
2018-07-22T19:37:48.184Z,26.60
2018-07-22T19:40:17.200Z,26.50
2018-07-22T19:42:46.184Z,26.20
2018-07-22T19:45:15.225Z,26.00
2018-07-22T19:47:44.147Z,26.10
2018-07-22T19:50:13.059Z,26.20
2018-07-22T19:52:42.005Z,26.20
2018-07-22T19:55:10.880Z,26.50
2018-07-22T19:57:39.848Z,26.40
2018-07-22T20:00:08.830Z,26.40
2018-07-22T20:02:37.774Z,26.30
2018-07-22T20:05:06.728Z,26.40
2018-07-22T20:07:35.676Z,26.20
2018-07-22T20:10:04.853Z,26.30
2018-07-22T20:12:33.851Z,26.20
2018-07-22T20:15:02.713Z,26.30
2018-07-22T20:17:31.595Z,26.40
2018-07-22T20:20:00.477Z,26.20
2018-07-22T20:22:29.392Z,26.10
2018-07-22T20:24:58.284Z,26.00
2018-07-22T20:27:27.197Z,25.70
2018-07-22T20:29:56.081Z,25.30
2018-07-22T20:32:25.000Z,25.60
2018-07-22T20:34:53.881Z,25.80
2018-07-22T20:37:22.832Z,25.90
2018-07-22T20:39:51.713Z,25.80
2018-07-22T20:42:20.669Z,25.80
2018-07-22T20:44:49.600Z,26.00
2018-07-22T20:47:18.638Z,26.10
2018-07-22T20:49:47.544Z,26.10
2018-07-22T20:52:16.617Z,25.90
2018-07-22T20:54:45.543Z,25.90
2018-07-22T20:57:14.559Z,26.00
2018-07-22T20:59:43.495Z,25.90
2018-07-22T21:02:12.592Z,25.90
2018-07-22T21:04:41.560Z,25.70
2018-07-22T21:07:10.676Z,25.60
2018-07-22T21:09:39.660Z,25.60
2018-07-22T21:12:45.812Z,25.40
2018-07-22T21:15:15.231Z,25.10
2018-07-22T21:17:45.371Z,25.40
2018-07-22T21:20:14.516Z,25.50
2018-07-22T21:22:43.435Z,25.50
2018-07-22T21:25:12.588Z,25.60
2018-07-22T21:27:41.448Z,25.20
2018-07-22T21:30:11.373Z,25.20
2018-07-22T21:32:40.664Z,25.30
2018-07-22T21:35:09.659Z,25.40
2018-07-22T21:37:38.692Z,25.30
2018-07-22T21:40:07.616Z,25.20
2018-07-22T21:42:36.509Z,25.30
2018-07-22T21:45:06.281Z,25.00
2018-07-22T21:47:35.488Z,25.00
2018-07-22T21:50:05.119Z,24.90
2018-07-22T21:52:34.009Z,25.00
2018-07-22T21:55:02.973Z,25.00
2018-07-22T21:57:31.864Z,25.10
2018-07-22T22:00:00.816Z,25.10
2018-07-22T22:02:32.665Z,25.00
2018-07-22T22:05:02.856Z,24.90
2018-07-22T22:07:32.189Z,25.00
2018-07-22T22:10:01.434Z,24.90
2018-07-22T22:12:30.368Z,24.80
2018-07-22T22:14:59.392Z,24.90
2018-07-22T22:17:28.338Z,24.90
2018-07-22T22:19:57.321Z,24.80
2018-07-22T22:22:26.328Z,24.80
2018-07-22T22:24:55.309Z,24.80
2018-07-22T22:27:24.287Z,24.80
2018-07-22T22:29:53.190Z,24.70
2018-07-22T22:32:22.126Z,24.70
2018-07-22T22:34:50.996Z,24.70
2018-07-22T22:37:19.900Z,24.60
2018-07-22T22:39:48.777Z,24.60
2018-07-22T22:42:17.737Z,24.60
2018-07-22T22:44:46.620Z,24.50
2018-07-22T22:47:15.536Z,24.50
2018-07-22T22:49:44.410Z,24.40
2018-07-22T22:52:13.316Z,24.40
2018-07-22T22:54:42.208Z,24.40
2018-07-22T22:57:11.157Z,24.40
2018-07-22T22:59:40.013Z,24.30
2018-07-22T23:02:09.064Z,24.20
2018-07-22T23:04:37.924Z,24.20
2018-07-22T23:07:06.847Z,24.20
2018-07-22T23:09:35.747Z,24.10
2018-07-22T23:12:04.683Z,24.10
2018-07-22T23:14:33.571Z,24.10
2018-07-22T23:17:02.496Z,24.00
2018-07-22T23:19:31.389Z,24.00
2018-07-22T23:22:00.329Z,24.00
2018-07-22T23:24:29.261Z,23.90
2018-07-22T23:26:58.222Z,23.90
2018-07-22T23:29:27.180Z,23.80
2018-07-22T23:31:56.148Z,23.80
2018-07-22T23:34:25.205Z,23.70
2018-07-22T23:36:54.116Z,23.70
2018-07-22T23:39:23.004Z,23.70
2018-07-22T23:41:51.857Z,23.70
2018-07-22T23:44:20.752Z,23.70
2018-07-22T23:46:49.617Z,23.60
2018-07-22T23:49:18.540Z,23.60
2018-07-22T23:51:47.400Z,23.50
2018-07-22T23:54:16.321Z,23.50
2018-07-22T23:56:45.189Z,23.50
2018-07-22T23:59:14.072Z,23.50
